createdAt,value
2023-01-17T00:01:13.267Z,2.78
2023-01-17T00:03:58.686Z,2.93
2023-01-17T00:06:44.633Z,2.86
2023-01-17T00:09:30.951Z,2.75
2023-01-17T00:11:58.894Z,2.65
2023-01-17T00:14:27.311Z,2.65
2023-01-17T00:16:54.323Z,2.76
2023-01-17T00:19:39.427Z,2.68
2023-01-17T00:22:29.449Z,2.86
2023-01-17T00:25:14.741Z,2.78
2023-01-17T00:27:41.331Z,2.83
2023-01-17T00:30:08.579Z,2.88
2023-01-17T00:32:35.153Z,2.71
2023-01-17T00:35:01.646Z,2.83
2023-01-17T00:37:28.228Z,2.89
2023-01-17T00:39:54.780Z,2.73
2023-01-17T00:42:21.481Z,2.81
2023-01-17T00:45:06.738Z,2.82
2023-01-17T00:47:53.149Z,2.85
2023-01-17T00:50:38.228Z,2.64
2023-01-17T00:53:24.135Z,2.57
2023-01-17T00:56:08.903Z,2.58
2023-01-17T00:58:54.377Z,2.44
2023-01-17T01:01:39.946Z,2.46
2023-01-17T01:04:25.511Z,2.43
2023-01-17T01:07:10.706Z,2.49
2023-01-17T01:09:56.064Z,2.76
2023-01-17T01:12:41.570Z,2.55
2023-01-17T01:15:27.210Z,2.74
2023-01-17T01:18:12.340Z,2.75
2023-01-17T01:20:57.548Z,2.61
2023-01-17T01:23:42.626Z,2.42
2023-01-17T01:26:27.887Z,2.42
2023-01-17T01:29:12.812Z,2.58
2023-01-17T01:31:58.190Z,2.35
2023-01-17T01:34:24.831Z,2.55
2023-01-17T01:36:51.402Z,2.60
2023-01-17T01:39:18.235Z,2.54
2023-01-17T01:41:44.938Z,2.63
2023-01-17T01:44:47.535Z,2.56
2023-01-17T01:47:18.817Z,2.50
2023-01-17T01:49:45.572Z,2.32
2023-01-17T01:52:12.583Z,2.29
2023-01-17T01:54:47.640Z,2.19
2023-01-17T01:57:18.660Z,2.54
2023-01-17T01:59:54.483Z,2.53
2023-01-17T02:02:21.191Z,2.63
2023-01-17T02:04:48.743Z,2.62
2023-01-17T02:07:26.156Z,2.55
2023-01-17T02:09:53.873Z,2.81
2023-01-17T02:12:21.287Z,2.70
2023-01-17T02:14:47.961Z,2.75
2023-01-17T02:17:38.322Z,2.86
2023-01-17T02:20:35.977Z,2.93
2023-01-17T02:23:22.829Z,2.84
2023-01-17T02:26:23.117Z,2.82
2023-01-17T02:29:01.624Z,2.73
2023-01-17T02:31:35.780Z,2.79
2023-01-17T02:35:00.594Z,2.90
2023-01-17T02:37:40.606Z,2.82
2023-01-17T02:40:43.188Z,2.88
2023-01-17T02:43:15.306Z,2.89
2023-01-17T02:45:42.899Z,3.08
2023-01-17T02:48:13.186Z,3.11
2023-01-17T02:51:04.035Z,2.82
2023-01-17T02:53:36.782Z,2.96
2023-01-17T02:56:16.807Z,2.69
2023-01-17T02:58:58.486Z,2.95
2023-01-17T03:01:25.247Z,2.93
2023-01-17T03:04:15.166Z,2.82
2023-01-17T03:06:48.893Z,2.83
2023-01-17T03:09:17.464Z,2.84
2023-01-17T03:11:44.456Z,2.88
2023-01-17T03:14:11.153Z,2.78
2023-01-17T03:16:38.103Z,2.93
2023-01-17T03:19:04.763Z,2.93
2023-01-17T03:21:31.421Z,2.92
2023-01-17T03:23:58.008Z,3.01
2023-01-17T03:26:24.780Z,3.14
2023-01-17T03:28:51.532Z,3.05
2023-01-17T03:31:20.035Z,3.08
2023-01-17T03:33:46.696Z,2.99
2023-01-17T03:36:13.368Z,2.99
2023-01-17T03:38:40.163Z,2.98
2023-01-17T03:41:07.485Z,3.06
2023-01-17T03:43:34.313Z,2.92
2023-01-17T03:46:06.613Z,3.14
2023-01-17T03:48:33.632Z,3.06
2023-01-17T03:51:00.394Z,3.07
2023-01-17T03:53:27.177Z,2.94
2023-01-17T03:55:54.145Z,3.03
2023-01-17T03:58:20.759Z,3.17
2023-01-17T04:00:47.563Z,3.08
2023-01-17T04:03:14.257Z,3.19
2023-01-17T04:05:40.933Z,3.11
2023-01-17T04:08:07.536Z,3.23
2023-01-17T04:10:34.176Z,3.27
2023-01-17T04:13:00.837Z,3.19
2023-01-17T04:15:27.472Z,3.22
2023-01-17T04:17:54.261Z,3.30
2023-01-17T04:20:41.239Z,3.38
2023-01-17T04:23:08.301Z,3.14
2023-01-17T04:25:35.112Z,3.47
2023-01-17T04:28:03.913Z,3.51
2023-01-17T04:30:32.216Z,3.65
2023-01-17T04:33:00.212Z,3.64
2023-01-17T04:35:29.091Z,3.58
2023-01-17T04:37:55.816Z,3.52
2023-01-17T04:40:22.661Z,3.59
2023-01-17T04:42:49.250Z,3.48
2023-01-17T04:45:16.144Z,3.68
2023-01-17T04:47:42.903Z,3.51
2023-01-17T04:50:12.876Z,3.35
2023-01-17T04:52:39.552Z,3.46
2023-01-17T04:55:06.769Z,3.70
2023-01-17T04:57:33.335Z,3.65
2023-01-17T04:59:59.974Z,3.57
2023-01-17T05:02:26.688Z,3.88
2023-01-17T05:04:53.389Z,3.81
2023-01-17T05:07:19.980Z,3.78
2023-01-17T05:09:47.753Z,3.77
2023-01-17T05:12:14.414Z,3.73
2023-01-17T05:14:41.135Z,3.94
2023-01-17T05:17:07.930Z,3.84
2023-01-17T05:19:34.918Z,4.05
2023-01-17T05:22:04.339Z,3.94
2023-01-17T05:24:32.312Z,4.19
2023-01-17T05:27:03.185Z,3.95
2023-01-17T05:29:30.792Z,4.27
2023-01-17T05:31:57.923Z,4.18
2023-01-17T05:34:25.022Z,4.06
2023-01-17T05:36:52.085Z,3.92
2023-01-17T05:39:18.989Z,4.29
2023-01-17T05:41:45.686Z,4.03
2023-01-17T05:44:12.805Z,4.07
2023-01-17T05:46:39.515Z,4.19
2023-01-17T05:49:06.199Z,4.30
2023-01-17T05:51:33.496Z,3.98
2023-01-17T05:54:00.368Z,4.34
2023-01-17T05:56:26.994Z,4.29
2023-01-17T05:58:53.624Z,3.85
2023-01-17T06:01:20.377Z,4.35
2023-01-17T06:03:47.112Z,4.58
2023-01-17T06:06:13.752Z,4.56
2023-01-17T06:08:40.376Z,4.55
2023-01-17T06:11:06.945Z,4.95
2023-01-17T06:13:33.801Z,5.13
2023-01-17T06:16:04.440Z,5.24
2023-01-17T06:18:32.039Z,5.63
2023-01-17T06:20:58.706Z,6.07
2023-01-17T06:23:25.874Z,5.70
2023-01-17T06:25:52.586Z,5.62
2023-01-17T06:28:21.863Z,5.35
2023-01-17T06:30:49.000Z,5.16
2023-01-17T06:33:15.957Z,5.44
2023-01-17T06:35:53.128Z,5.49
2023-01-17T06:38:20.338Z,5.47
2023-01-17T06:40:47.210Z,5.31
2023-01-17T06:43:13.766Z,5.51
2023-01-17T06:45:40.368Z,5.50
2023-01-17T06:48:07.659Z,5.33
2023-01-17T06:50:34.705Z,5.60
2023-01-17T06:53:03.867Z,5.51
2023-01-17T06:55:33.816Z,5.59
2023-01-17T06:58:02.797Z,5.38
2023-01-17T07:00:31.109Z,5.57
2023-01-17T07:02:58.025Z,5.60
2023-01-17T07:05:25.222Z,5.31
2023-01-17T07:07:52.099Z,5.41
2023-01-17T07:10:18.717Z,5.59
2023-01-17T07:12:45.677Z,5.69
2023-01-17T07:15:12.941Z,5.92
2023-01-17T07:17:39.722Z,6.05
2023-01-17T07:20:07.043Z,6.12
2023-01-17T07:22:34.006Z,6.32
2023-01-17T07:25:00.733Z,6.55
2023-01-17T07:27:30.465Z,6.79
2023-01-17T07:29:58.029Z,7.03
2023-01-17T07:32:26.778Z,7.09
2023-01-17T07:34:54.064Z,7.23
2023-01-17T07:37:21.017Z,7.39
2023-01-17T07:39:47.677Z,7.66
2023-01-17T07:42:14.302Z,7.85
2023-01-17T07:44:44.026Z,8.07
2023-01-17T07:47:11.356Z,7.92
2023-01-17T07:49:38.096Z,8.46
2023-01-17T07:52:07.074Z,8.74
2023-01-17T07:54:33.893Z,8.74
2023-01-17T07:57:01.220Z,8.60
2023-01-17T07:59:27.829Z,8.69
2023-01-17T08:01:54.640Z,9.27
2023-01-17T08:04:21.405Z,9.42
2023-01-17T08:06:50.769Z,9.59
2023-01-17T08:09:17.531Z,9.69
2023-01-17T08:11:44.150Z,9.96
2023-01-17T08:14:10.798Z,9.87
2023-01-17T08:16:38.218Z,9.84
2023-01-17T08:19:04.868Z,10.07
2023-01-17T08:21:31.578Z,10.60
2023-01-17T08:23:58.271Z,10.83
2023-01-17T08:26:25.001Z,10.94
2023-01-17T08:28:57.085Z,10.70
2023-01-17T08:31:24.521Z,11.16
2023-01-17T08:33:51.564Z,11.26
2023-01-17T08:36:18.809Z,11.66
2023-01-17T08:38:45.494Z,11.86
2023-01-17T08:41:13.051Z,12.18
2023-01-17T08:43:39.735Z,11.93
2023-01-17T08:46:06.570Z,11.69
2023-01-17T08:48:33.225Z,11.82
2023-01-17T08:51:03.521Z,11.61
2023-01-17T08:53:30.302Z,11.82
2023-01-17T08:56:01.675Z,11.81
2023-01-17T08:58:30.839Z,12.01
2023-01-17T09:01:05.376Z,12.16
2023-01-17T09:03:33.895Z,12.26
2023-01-17T09:06:09.545Z,12.35
2023-01-17T09:08:36.316Z,12.08
2023-01-17T09:11:07.623Z,12.56
2023-01-17T09:13:34.373Z,12.35
2023-01-17T09:16:01.071Z,12.16
2023-01-17T09:18:28.967Z,12.08
2023-01-17T09:20:57.743Z,12.07
2023-01-17T09:23:25.824Z,12.11
2023-01-17T09:25:57.574Z,12.41
2023-01-17T09:28:25.753Z,12.69
2023-01-17T09:30:53.169Z,12.45
2023-01-17T09:33:20.475Z,12.73
2023-01-17T09:35:47.645Z,12.39
2023-01-17T09:38:14.535Z,12.32
2023-01-17T09:40:46.997Z,12.47
2023-01-17T09:43:41.410Z,12.52
2023-01-17T09:46:22.763Z,12.56
2023-01-17T09:49:02.819Z,12.49
2023-01-17T09:51:29.473Z,12.18
2023-01-17T09:53:56.309Z,12.33
2023-01-17T09:56:30.296Z,12.55
2023-01-17T09:59:38.243Z,12.37
2023-01-17T10:02:26.878Z,12.29
2023-01-17T10:05:52.242Z,12.19
2023-01-17T10:08:50.541Z,12.36
2023-01-17T10:11:33.506Z,12.38
2023-01-17T10:14:18.706Z,12.41
2023-01-17T10:16:57.588Z,12.31
2023-01-17T10:19:58.004Z,12.28
2023-01-17T10:22:43.373Z,12.08
2023-01-17T10:25:42.566Z,12.18
2023-01-17T10:28:23.382Z,12.11
2023-01-17T10:30:52.487Z,11.90
2023-01-17T10:33:23.049Z,12.05
2023-01-17T10:36:03.821Z,12.11
2023-01-17T10:38:38.684Z,11.94
2023-01-17T10:41:17.134Z,12.09
2023-01-17T10:43:59.818Z,12.07
2023-01-17T10:46:32.648Z,12.07
2023-01-17T10:49:01.343Z,12.20
2023-01-17T10:51:43.123Z,12.10
2023-01-17T10:54:44.438Z,12.32
2023-01-17T10:57:17.701Z,12.47
2023-01-17T10:59:44.419Z,12.35
2023-01-17T11:02:30.380Z,12.37
2023-01-17T11:05:02.635Z,12.29
2023-01-17T11:07:29.989Z,12.19
2023-01-17T11:09:58.476Z,12.31
2023-01-17T11:12:34.936Z,12.28
2023-01-17T11:15:06.460Z,12.43
2023-01-17T11:17:36.859Z,12.23
2023-01-17T11:20:09.182Z,12.43
2023-01-17T11:22:36.024Z,12.42
2023-01-17T11:25:02.739Z,12.44
2023-01-17T11:27:33.182Z,12.19
2023-01-17T11:30:16.545Z,12.27
2023-01-17T11:32:53.037Z,12.50
2023-01-17T11:35:21.372Z,12.37
2023-01-17T11:38:03.167Z,12.56
2023-01-17T11:40:35.889Z,12.50
2023-01-17T11:43:23.161Z,12.68
2023-01-17T11:46:15.892Z,12.70
2023-01-17T11:48:56.628Z,12.67
2023-01-17T11:51:26.422Z,12.70
2023-01-17T11:53:55.612Z,12.74
2023-01-17T11:56:28.234Z,12.59
2023-01-17T11:59:07.620Z,12.41
2023-01-17T12:01:43.352Z,12.30
2023-01-17T12:04:10.044Z,12.64
2023-01-17T12:06:57.550Z,12.68
2023-01-17T12:09:33.636Z,12.48
2023-01-17T12:12:29.645Z,12.49
2023-01-17T12:15:23.345Z,12.53
2023-01-17T12:17:55.990Z,12.47
2023-01-17T12:20:34.139Z,12.22
2023-01-17T12:23:26.871Z,12.46
2023-01-17T12:25:59.293Z,12.53
2023-01-17T12:28:46.290Z,12.62
2023-01-17T12:31:20.346Z,12.51
2023-01-17T12:34:16.353Z,12.68
2023-01-17T12:37:08.227Z,12.59
2023-01-17T12:39:42.765Z,12.72
2023-01-17T12:42:14.419Z,12.91
2023-01-17T12:44:47.030Z,12.89
2023-01-17T12:47:15.885Z,12.92
2023-01-17T12:49:54.055Z,12.92
2023-01-17T12:52:42.598Z,13.01
2023-01-17T12:55:17.734Z,13.10
2023-01-17T12:58:18.916Z,13.03
2023-01-17T13:00:49.145Z,13.07
2023-01-17T13:03:20.424Z,13.16
2023-01-17T13:05:48.585Z,13.05
2023-01-17T13:08:34.528Z,13.14
2023-01-17T13:11:07.975Z,13.10
2023-01-17T13:13:36.164Z,13.05
2023-01-17T13:16:16.644Z,13.16
2023-01-17T13:18:48.076Z,13.08
2023-01-17T13:21:35.319Z,13.16
2023-01-17T13:24:22.396Z,12.92
2023-01-17T13:27:15.617Z,12.83
2023-01-17T13:29:54.383Z,13.20
2023-01-17T13:32:49.511Z,13.23
2023-01-17T13:35:33.509Z,13.24
2023-01-17T13:38:09.469Z,13.27
2023-01-17T13:40:49.732Z,13.08
2023-01-17T13:43:30.739Z,13.17
2023-01-17T13:46:01.395Z,13.09
2023-01-17T13:48:31.050Z,13.19
2023-01-17T13:50:59.685Z,13.39
2023-01-17T13:53:29.221Z,13.32
2023-01-17T13:56:22.093Z,13.37
2023-01-17T13:58:54.933Z,13.29
2023-01-17T14:01:24.649Z,13.27
2023-01-17T14:03:51.829Z,13.33
2023-01-17T14:06:37.248Z,13.02
2023-01-17T14:09:13.187Z,13.33
2023-01-17T14:12:05.704Z,13.33
2023-01-17T14:14:44.504Z,13.47
2023-01-17T14:17:23.184Z,13.38
2023-01-17T14:19:55.966Z,13.08
2023-01-17T14:22:29.814Z,13.31
2023-01-17T14:25:09.732Z,13.54
2023-01-17T14:27:42.852Z,13.43
2023-01-17T14:30:33.933Z,13.38
2023-01-17T14:33:04.809Z,13.36
2023-01-17T14:35:34.523Z,13.38
2023-01-17T14:38:05.365Z,13.26
2023-01-17T14:40:38.330Z,13.32
2023-01-17T14:43:15.891Z,13.43
2023-01-17T14:45:43.653Z,13.49
2023-01-17T14:48:18.865Z,13.48
2023-01-17T14:50:50.232Z,13.60
2023-01-17T14:53:20.210Z,13.63
2023-01-17T14:55:56.784Z,13.53
2023-01-17T14:58:27.953Z,13.56
2023-01-17T15:01:10.107Z,13.60
2023-01-17T15:03:49.748Z,13.47
2023-01-17T15:06:34.637Z,13.22
2023-01-17T15:09:01.390Z,13.30
2023-01-17T15:11:32.846Z,13.20
2023-01-17T15:14:06.011Z,13.35
2023-01-17T15:16:36.301Z,13.36
2023-01-17T15:19:11.311Z,13.25
2023-01-17T15:21:42.686Z,13.37
2023-01-17T15:24:21.905Z,13.35
2023-01-17T15:26:49.285Z,13.32
2023-01-17T15:29:28.574Z,13.22
2023-01-17T15:32:00.897Z,13.36
2023-01-17T15:34:37.074Z,13.29
2023-01-17T15:37:08.111Z,13.23
2023-01-17T15:39:37.383Z,13.18
2023-01-17T15:42:19.231Z,13.34
2023-01-17T15:44:48.943Z,13.03
2023-01-17T15:47:38.568Z,13.11
2023-01-17T15:50:27.952Z,13.07
2023-01-17T15:53:01.208Z,12.87
2023-01-17T15:55:30.675Z,13.11
2023-01-17T15:57:57.410Z,13.09
2023-01-17T16:00:38.361Z,13.04
2023-01-17T16:03:36.138Z,12.96
2023-01-17T16:06:04.602Z,13.00
2023-01-17T16:08:39.751Z,13.03
2023-01-17T16:11:08.101Z,13.07
2023-01-17T16:13:43.674Z,12.94
2023-01-17T16:16:15.131Z,12.48
2023-01-17T16:18:42.779Z,12.59
2023-01-17T16:21:28.693Z,12.23
2023-01-17T16:23:56.389Z,12.06
2023-01-17T16:26:24.260Z,11.97
2023-01-17T16:29:03.182Z,12.56
2023-01-17T16:31:30.426Z,11.69
2023-01-17T16:33:57.304Z,12.05
2023-01-17T16:36:24.315Z,11.87
2023-01-17T16:38:52.088Z,12.11
2023-01-17T16:41:19.622Z,12.08
2023-01-17T16:43:48.236Z,12.22
2023-01-17T16:46:15.581Z,12.22
2023-01-17T16:48:43.109Z,11.80
2023-01-17T16:51:09.791Z,11.20
2023-01-17T16:53:37.513Z,11.18
2023-01-17T16:56:12.254Z,10.87
2023-01-17T16:58:39.504Z,10.99
2023-01-17T17:01:17.520Z,10.85
2023-01-17T17:03:44.794Z,10.73
2023-01-17T17:06:12.413Z,10.68
2023-01-17T17:08:39.925Z,10.63
2023-01-17T17:11:24.831Z,10.50
2023-01-17T17:13:52.550Z,10.68
2023-01-17T17:16:21.478Z,10.73
2023-01-17T17:18:55.494Z,10.67
2023-01-17T17:21:22.434Z,10.86
2023-01-17T17:23:54.889Z,10.77
2023-01-17T17:26:21.602Z,10.37
2023-01-17T17:28:52.799Z,10.21
2023-01-17T17:31:19.755Z,9.92
2023-01-17T17:33:46.676Z,9.65
2023-01-17T17:36:13.619Z,9.96
2023-01-17T17:38:50.779Z,9.77
2023-01-17T17:41:23.743Z,9.80
2023-01-17T17:43:52.342Z,9.96
2023-01-17T17:46:20.805Z,9.67
2023-01-17T17:48:48.495Z,9.77
2023-01-17T17:51:29.695Z,9.63
2023-01-17T17:54:00.941Z,9.42
2023-01-17T17:56:29.380Z,9.19
2023-01-17T17:58:57.185Z,9.45
2023-01-17T18:01:24.536Z,9.20
2023-01-17T18:03:52.487Z,9.20
2023-01-17T18:06:20.949Z,9.11
2023-01-17T18:08:48.304Z,9.05
2023-01-17T18:11:19.213Z,9.39
2023-01-17T18:13:50.833Z,9.42
2023-01-17T18:16:24.888Z,9.44
2023-01-17T18:18:54.355Z,9.41
2023-01-17T18:21:25.328Z,9.37
2023-01-17T18:23:55.582Z,9.18
2023-01-17T18:26:26.159Z,9.32
2023-01-17T18:28:54.249Z,8.56
2023-01-17T18:31:24.277Z,8.70
2023-01-17T18:33:52.188Z,8.91
2023-01-17T18:36:19.769Z,9.13
2023-01-17T18:38:48.292Z,9.24
2023-01-17T18:41:18.263Z,8.81
2023-01-17T18:43:45.905Z,8.88
2023-01-17T18:46:13.132Z,9.43
2023-01-17T18:48:40.134Z,9.15
2023-01-17T18:51:09.531Z,8.94
2023-01-17T18:53:37.928Z,9.14
2023-01-17T18:56:07.665Z,8.76
2023-01-17T18:58:42.985Z,8.92
2023-01-17T19:01:36.371Z,9.13
2023-01-17T19:04:04.895Z,9.24
2023-01-17T19:06:38.812Z,8.74
2023-01-17T19:09:08.461Z,9.06
2023-01-17T19:11:36.561Z,9.33
2023-01-17T19:14:06.411Z,8.95
2023-01-17T19:16:37.178Z,9.34
2023-01-17T19:19:07.097Z,9.67
2023-01-17T19:21:34.476Z,9.33
2023-01-17T19:24:01.621Z,9.79
2023-01-17T19:26:30.253Z,9.84
2023-01-17T19:28:59.053Z,9.91
2023-01-17T19:31:28.672Z,10.00
2023-01-17T19:33:57.653Z,9.25
2023-01-17T19:36:27.965Z,9.83
2023-01-17T19:39:04.534Z,9.87
2023-01-17T19:41:33.525Z,10.16
2023-01-17T19:44:03.490Z,10.48
2023-01-17T19:46:30.551Z,10.70
2023-01-17T19:48:58.100Z,10.86
2023-01-17T19:51:26.879Z,11.14
2023-01-17T19:53:54.178Z,11.30
2023-01-17T19:56:24.229Z,11.20
2023-01-17T19:58:52.496Z,11.79
2023-01-17T20:01:23.580Z,12.01
2023-01-17T20:03:51.523Z,12.07
2023-01-17T20:06:24.021Z,12.22
2023-01-17T20:08:51.014Z,12.43
2023-01-17T20:11:20.702Z,12.50
2023-01-17T20:13:49.754Z,12.53
2023-01-17T20:16:17.899Z,12.22
2023-01-17T20:18:44.991Z,12.59
2023-01-17T20:21:15.228Z,12.57
2023-01-17T20:23:43.632Z,12.58
2023-01-17T20:26:12.209Z,12.51
2023-01-17T20:28:41.316Z,12.52
2023-01-17T20:31:17.185Z,12.40
2023-01-17T20:33:45.439Z,12.45
2023-01-17T20:36:14.982Z,12.41
2023-01-17T20:38:45.728Z,12.47
2023-01-17T20:41:18.094Z,12.37
2023-01-17T20:43:47.655Z,12.42
2023-01-17T20:46:15.045Z,12.55
2023-01-17T20:48:49.690Z,12.55
2023-01-17T20:51:17.556Z,12.42
2023-01-17T20:53:46.665Z,12.41
2023-01-17T20:56:16.978Z,11.86
2023-01-17T20:58:44.265Z,12.40
2023-01-17T21:01:13.444Z,12.30
2023-01-17T21:03:40.538Z,12.08
2023-01-17T21:06:11.853Z,12.46
2023-01-17T21:08:40.921Z,12.56
2023-01-17T21:11:09.815Z,12.47
2023-01-17T21:13:37.188Z,12.31
2023-01-17T21:16:04.016Z,12.37
2023-01-17T21:18:32.194Z,12.53
2023-01-17T21:21:08.018Z,12.53
2023-01-17T21:23:38.980Z,12.38
2023-01-17T21:26:07.473Z,12.54
2023-01-17T21:28:37.238Z,12.32
2023-01-17T21:31:24.703Z,12.58
2023-01-17T21:34:00.102Z,12.47
2023-01-17T21:36:32.733Z,12.30
2023-01-17T21:39:04.238Z,12.12
2023-01-17T21:41:33.617Z,12.19
2023-01-17T21:44:03.557Z,12.28
2023-01-17T21:46:30.611Z,12.35
2023-01-17T21:48:57.828Z,12.58
2023-01-17T21:51:45.110Z,12.47
2023-01-17T21:54:11.737Z,12.10
2023-01-17T21:56:56.859Z,12.06
2023-01-17T21:59:24.212Z,12.26
2023-01-17T22:01:50.993Z,12.44
2023-01-17T22:04:17.633Z,12.42
2023-01-17T22:06:44.321Z,12.29
2023-01-17T22:09:10.992Z,11.88
2023-01-17T22:11:37.688Z,12.09
2023-01-17T22:14:05.154Z,12.29
2023-01-17T22:16:32.254Z,12.32
2023-01-17T22:18:59.165Z,11.83
2023-01-17T22:21:31.302Z,11.83
2023-01-17T22:23:59.578Z,11.82
2023-01-17T22:26:31.668Z,12.26
2023-01-17T22:29:02.567Z,12.29
2023-01-17T22:31:29.276Z,12.10
2023-01-17T22:34:01.919Z,12.14
2023-01-17T22:36:29.906Z,12.12
2023-01-17T22:38:56.945Z,12.36
2023-01-17T22:41:27.882Z,12.42
2023-01-17T22:43:58.462Z,12.42
2023-01-17T22:46:27.486Z,11.90
2023-01-17T22:48:55.524Z,12.00
2023-01-17T22:51:24.575Z,12.01
2023-01-17T22:53:53.741Z,12.37
2023-01-17T22:56:29.337Z,12.15
2023-01-17T22:58:57.559Z,12.40
2023-01-17T23:01:29.952Z,12.53
2023-01-17T23:03:58.838Z,11.71
2023-01-17T23:06:37.078Z,12.29
2023-01-17T23:09:17.192Z,11.93
2023-01-17T23:11:47.428Z,12.22
2023-01-17T23:14:22.851Z,12.28
2023-01-17T23:17:10.952Z,12.27
2023-01-17T23:19:42.362Z,12.02
2023-01-17T23:22:21.063Z,12.12
2023-01-17T23:25:08.717Z,12.15
2023-01-17T23:27:59.610Z,11.68
2023-01-17T23:30:36.896Z,12.15
2023-01-17T23:33:08.326Z,12.12
2023-01-17T23:35:41.732Z,12.15
2023-01-17T23:38:29.737Z,11.80
2023-01-17T23:41:22.535Z,12.01
2023-01-17T23:43:53.608Z,11.97
2023-01-17T23:46:20.738Z,11.97
2023-01-17T23:48:48.316Z,11.95
2023-01-17T23:51:15.275Z,11.90
2023-01-17T23:53:42.505Z,11.94
2023-01-17T23:56:27.197Z,11.78
2023-01-17T23:58:53.830Z,11.83
